Aviation Digital Data Service (ADDS)

Output produced by METARs form (1252 UTC 17 September 2019)
found at http://www.aviationweather.gov/metar/data/
 
Forecast for: LFPG (CHARLES DE GAULL, FR)
Text: TAF LFPG 171100Z 1712/1818 03010KT 9999 SCT035 TX23/1715Z TN11/1806Z
Forecast period: 1200 UTC 17 September 2019 to 1800 UTC 18 September 2019
Forecast type: FROM: standard forecast or significant change
Winds: from the NNE (30 degrees) at 12 MPH (10 knots; 5.1 m/s)
Visibility: 6 or more miles 10+ km)
Ceiling: at least 12,000 feet AGL
Clouds: scattered clouds at 3500 feet AGL
Weather: no significant weather forecast for this period
Text: TEMPO 1810/1816 04015G25KT
Forecast period: 1000 to 1600 UTC 18 September 2019
Forecast type: TEMPORARY: The following changes expected for less than half the time period
Winds: from the NE (40 degrees) at 17 MPH (15 knots; 7.7 m/s)
gusting to 29 MPH (25 knots; 12.9 m/s)
Visibility: missing
Ceiling: unknown
Clouds: missing
Weather: no significant weather forecast for this period